KSAA/SAA METAR and TAF weather

Enter ICAO airport designator
Station Type Date Time Source
KSAA METAR 2021/09/24 02:15 UTC NOAA

KSAA 240215Z AUTO 32003KT 10SM CLR 14/M05 A3024 RMK AO2


Station Type Date Time Source
KSAA Decoded METAR 2021/09/24 02:15 UTC NOAA

Station name not available
Sep 23, 2021 - 10:15 PM EDT / 2021.09.24 0215 UTC
Wind: from the NW (320 degrees) at 3 MPH (3 KT):0
Visibility: 10 mile(s):0
Sky conditions: clear
Temperature: 57 F (14 C)
Dew Point: 23 F (-5 C)
Relative Humidity: 26%
Pressure (altimeter): 30.24 in. Hg (1024 hPa)
ob: KSAA 240215Z AUTO 32003KT 10SM CLR 14/M05 A3024 RMK AO2
cycle: 2

Station Type Date Time Source
KSAA TAF UTC NOAA

Error!

Example: see airport list